Time;durP1;ratioP1;P1;durP2;ratioP2;P2;SDS_P1;SDS_P2;PMS_P1;PMS_P2;Temp;Humidity;BMP_temperature;BMP_pressure;BME280_temperature;BME280_humidity;BME280_pressure;Samples;Min_cycle;Max_cycle;Signal;HPM_P1;HPM_P2
2023/06/19 00:00:54;;;;;;;4.03;2.58;;;26.50;38.70;;;;;;2477794;55;20945;-74
2023/06/19 00:03:24;;;;;;;4.32;2.70;;;26.50;38.90;;;;;;2439578;56;21121;-74
2023/06/19 00:06:01;;;;;;;4.30;2.58;;;26.50;39.10;;;;;;2246979;55;21862;-74
2023/06/19 00:08:37;;;;;;;4.47;2.87;;;26.50;39.50;;;;;;2224586;57;21527;-75
2023/06/19 00:11:06;;;;;;;3.97;2.20;;;26.50;39.50;;;;;;2245004;57;21047;-75
2023/06/19 00:13:41;;;;;;;3.47;2.30;;;26.50;39.70;;;;;;2244508;56;21442;-75
2023/06/19 00:16:14;;;;;;;4.43;2.20;;;26.50;40.00;;;;;;2474243;55;20999;-74
2023/06/19 00:18:41;;;;;;;3.55;2.28;;;26.50;40.40;;;;;;2244089;56;21411;-75
2023/06/19 00:21:08;;;;;;;5.87;2.40;;;26.50;40.10;;;;;;2477750;55;21725;-74
2023/06/19 00:23:36;;;;;;;3.87;2.03;;;26.60;40.30;;;;;;2478451;55;20976;-75
2023/06/19 00:26:03;;;;;;;3.45;1.80;;;26.60;40.50;;;;;;2476600;55;20929;-74
2023/06/19 00:28:33;;;;;;;3.78;2.15;;;26.60;40.60;;;;;;2252347;56;21048;-75
2023/06/19 00:31:06;;;;;;;3.83;2.57;;;26.60;40.60;;;;;;2250691;56;21000;-74
2023/06/19 00:33:37;;;;;;;3.37;2.20;;;26.60;41.00;;;;;;2443586;55;22144;-75
2023/06/19 00:36:13;;;;;;;2.90;1.80;;;26.60;41.00;;;;;;2447669;55;21014;-75
2023/06/19 00:38:40;;;;;;;5.68;1.95;;;26.60;41.10;;;;;;2449281;55;21027;-75
2023/06/19 00:41:07;;;;;;;3.12;1.95;;;26.70;41.10;;;;;;2441648;56;20937;-72
2023/06/19 00:43:33;;;;;;;3.97;2.08;;;26.70;41.30;;;;;;2478610;55;20949;-73
2023/06/19 00:46:02;;;;;;;3.92;2.22;;;26.70;41.40;;;;;;2251435;56;21696;-74
2023/06/19 00:48:30;;;;;;;3.72;2.50;;;26.70;41.70;;;;;;2478734;55;21052;-73
2023/06/19 00:50:57;;;;;;;4.28;2.85;;;26.70;41.90;;;;;;2251523;56;20948;-75
2023/06/19 00:53:24;;;;;;;4.03;2.35;;;26.70;41.90;;;;;;2477719;55;21021;-75
2023/06/19 00:55:54;;;;;;;3.90;2.40;;;26.70;42.20;;;;;;2465714;55;21005;-74
2023/06/19 00:58:20;;;;;;;3.85;2.25;;;26.70;42.10;;;;;;2479711;55;21092;-74
2023/06/19 01:00:47;;;;;;;3.30;1.80;;;26.70;42.20;;;;;;2478832;55;21001;-74
2023/06/19 01:03:18;;;;;;;4.78;2.53;;;26.70;42.20;;;;;;2466835;55;20946;-74
2023/06/19 01:05:46;;;;;;;3.50;1.73;;;26.70;43.00;;;;;;2475781;55;21020;-74
2023/06/19 01:09:11;;;;;;;4.65;2.25;;;26.60;42.40;;;;;;2242598;57;21007;-73
2023/06/19 01:11:45;;;;;;;3.42;2.17;;;26.60;43.50;;;;;;2474404;55;20984;-74
2023/06/19 01:15:42;;;;;;;4.43;2.28;;;26.60;43.00;;;;;;2478466;55;20984;-74
2023/06/19 01:18:11;;;;;;;3.60;2.08;;;26.50;43.30;;;;;;2478556;55;21060;-74
2023/06/19 01:20:38;;;;;;;3.72;2.00;;;26.50;42.90;;;;;;2462584;55;21008;-74
2023/06/19 01:23:11;;;;;;;3.35;1.80;;;26.50;43.20;;;;;;2478225;55;20965;-74
2023/06/19 01:25:37;;;;;;;3.33;1.73;;;26.40;43.60;;;;;;2477403;55;21025;-73
2023/06/19 01:28:05;;;;;;;2.75;1.50;;;26.30;43.40;;;;;;2477966;55;20973;-73
2023/06/19 01:30:32;;;;;;;3.80;1.60;;;26.30;44.20;;;;;;2251997;56;20973;-74
2023/06/19 01:33:11;;;;;;;3.12;1.40;;;26.30;43.70;;;;;;2478981;55;21148;-73
2023/06/19 01:35:38;;;;;;;4.75;1.90;;;26.30;44.40;;;;;;2473252;55;21773;-74
2023/06/19 01:38:05;;;;;;;3.53;1.70;;;26.20;44.20;;;;;;2252101;56;20976;-73
2023/06/19 01:40:33;;;;;;;3.83;2.12;;;26.20;44.20;;;;;;2440440;56;20985;-75
2023/06/19 01:43:04;;;;;;;3.15;1.73;;;26.20;44.60;;;;;;2467526;55;21044;-75
2023/06/19 01:45:30;;;;;;;6.22;1.90;;;26.10;44.50;;;;;;2474348;55;20929;-75
2023/06/19 01:47:57;;;;;;;3.90;1.90;;;26.10;44.60;;;;;;2476895;55;21024;-75
2023/06/19 01:50:23;;;;;;;3.40;1.92;;;26.10;44.70;;;;;;2242712;57;21084;-75
2023/06/19 01:52:50;;;;;;;3.30;1.85;;;26.00;44.90;;;;;;2478231;55;20945;-75
2023/06/19 01:55:16;;;;;;;2.92;1.73;;;26.00;44.90;;;;;;2478796;55;20980;-74
2023/06/19 01:57:42;;;;;;;3.40;1.90;;;25.90;45.00;;;;;;2478058;55;21849;-74
2023/06/19 02:00:10;;;;;;;3.40;1.85;;;25.90;45.10;;;;;;2478425;55;21013;-75
2023/06/19 02:02:37;;;;;;;3.55;2.00;;;25.90;45.50;;;;;;2251449;56;20980;-74
2023/06/19 02:05:04;;;;;;;3.17;1.73;;;25.80;45.60;;;;;;2243842;57;21054;-74
2023/06/19 02:07:31;;;;;;;3.20;1.92;;;25.80;45.60;;;;;;2471121;55;20943;-73
2023/06/19 02:09:57;;;;;;;3.97;1.98;;;25.70;45.60;;;;;;2468757;55;21001;-74
2023/06/19 02:12:30;;;;;;;2.78;1.60;;;25.70;45.60;;;;;;2478430;55;20972;-74
2023/06/19 02:14:56;;;;;;;2.62;1.48;;;25.60;45.50;;;;;;2478074;55;21706;-74
2023/06/19 02:17:22;;;;;;;2.70;1.52;;;25.60;45.60;;;;;;2478007;55;21000;-73
2023/06/19 02:19:49;;;;;;;3.62;1.90;;;25.50;45.60;;;;;;2477712;55;21712;-73
2023/06/19 02:22:17;;;;;;;4.05;2.40;;;25.40;45.80;;;;;;2233507;56;20991;-74
2023/06/19 02:24:44;;;;;;;3.22;1.90;;;25.40;46.20;;;;;;2463355;55;20969;-73
2023/06/19 02:27:11;;;;;;;3.42;1.85;;;25.30;46.40;;;;;;2477598;55;20936;-73
2023/06/19 02:29:37;;;;;;;4.47;2.03;;;25.30;46.60;;;;;;2474254;55;21031;-71
2023/06/19 02:32:05;;;;;;;3.20;1.80;;;25.20;46.80;;;;;;2466690;55;21001;-73
2023/06/19 02:34:32;;;;;;;3.30;1.60;;;25.20;47.50;;;;;;2472458;55;21018;-73
2023/06/19 02:37:00;;;;;;;2.60;1.48;;;25.10;46.90;;;;;;2244437;56;20936;-73
2023/06/19 02:39:32;;;;;;;2.58;1.50;;;25.10;46.90;;;;;;2478260;55;21020;-73
2023/06/19 02:42:02;;;;;;;2.65;1.27;;;25.00;46.90;;;;;;2250334;56;20951;-73
2023/06/19 02:44:28;;;;;;;2.35;1.20;;;25.00;47.10;;;;;;2469726;55;20969;-72
2023/06/19 02:46:54;;;;;;;3.50;1.45;;;24.90;47.20;;;;;;2251522;56;20949;-73
2023/06/19 02:49:22;;;;;;;2.58;1.30;;;24.90;47.30;;;;;;2478339;55;20961;-73
2023/06/19 02:51:48;;;;;;;2.45;1.12;;;24.80;47.30;;;;;;2476513;55;21049;-73
2023/06/19 02:54:14;;;;;;;2.37;1.12;;;24.80;47.50;;;;;;2463890;55;20981;-73
2023/06/19 02:56:41;;;;;;;2.72;1.27;;;24.80;47.60;;;;;;2477258;55;20934;-73
2023/06/19 02:59:08;;;;;;;2.53;1.40;;;24.70;47.70;;;;;;2253041;56;21024;-73
2023/06/19 03:01:35;;;;;;;2.97;1.40;;;24.70;47.90;;;;;;2477779;55;21399;-73
2023/06/19 03:04:02;;;;;;;3.85;1.40;;;24.60;47.90;;;;;;2477753;55;21951;-73
2023/06/19 03:06:30;;;;;;;2.37;1.20;;;24.60;48.00;;;;;;2246570;56;20966;-74
2023/06/19 03:08:59;;;;;;;2.85;1.25;;;24.60;48.10;;;;;;2246990;56;20976;-74
2023/06/19 03:11:25;;;;;;;2.30;1.05;;;24.60;48.20;;;;;;2478598;55;20977;-73
2023/06/19 03:13:53;;;;;;;3.87;1.48;;;24.60;48.30;;;;;;2251253;56;20989;-71
2023/06/19 03:16:20;;;;;;;2.75;1.42;;;24.50;48.40;;;;;;2478278;55;21568;-73
2023/06/19 03:18:47;;;;;;;2.58;1.20;;;24.50;48.60;;;;;;2478076;55;21004;-74
2023/06/19 03:21:15;;;;;;;2.55;1.30;;;24.50;48.70;;;;;;2478247;55;20976;-74
2023/06/19 03:23:41;;;;;;;2.22;1.20;;;24.40;48.70;;;;;;2251448;56;20941;-74
2023/06/19 03:26:09;;;;;;;2.40;1.20;;;24.40;48.70;;;;;;2478843;55;20945;-73
2023/06/19 03:28:35;;;;;;;2.78;1.27;;;24.40;48.70;;;;;;2478619;55;20985;-72
2023/06/19 03:31:02;;;;;;;2.75;1.30;;;24.40;48.90;;;;;;2478408;55;20981;-74
2023/06/19 03:33:29;;;;;;;2.85;1.20;;;24.40;48.90;;;;;;2251910;56;20980;-74
2023/06/19 03:36:00;;;;;;;3.20;1.60;;;24.40;49.00;;;;;;2478055;55;21005;-74
2023/06/19 03:38:28;;;;;;;2.75;1.50;;;24.40;49.20;;;;;;2478646;55;21528;-74
2023/06/19 03:40:55;;;;;;;2.72;1.35;;;24.40;49.30;;;;;;2476474;55;21468;-74
2023/06/19 03:43:21;;;;;;;3.00;1.30;;;24.40;49.30;;;;;;2469705;55;21007;-74
2023/06/19 03:45:50;;;;;;;2.70;1.10;;;24.40;49.30;;;;;;2470356;55;20977;-74
2023/06/19 03:48:20;;;;;;;3.20;1.45;;;24.40;49.40;;;;;;2478125;55;20941;-74
2023/06/19 03:50:47;;;;;;;2.83;1.30;;;24.40;49.60;;;;;;2477928;55;21001;-75
2023/06/19 03:53:13;;;;;;;2.80;1.50;;;24.40;49.60;;;;;;2478611;55;20976;-74
2023/06/19 03:55:40;;;;;;;2.80;1.60;;;24.40;49.70;;;;;;2438406;56;21029;-73
2023/06/19 03:58:06;;;;;;;2.53;1.23;;;24.40;49.90;;;;;;2478175;55;20964;-73
2023/06/19 04:00:35;;;;;;;2.55;1.37;;;24.40;49.90;;;;;;2478522;55;21012;-73
2023/06/19 04:03:05;;;;;;;2.62;1.40;;;24.40;49.90;;;;;;2477672;55;21777;-75
2023/06/19 04:05:32;;;;;;;2.92;1.37;;;24.40;50.10;;;;;;2251639;56;20964;-74
2023/06/19 04:08:01;;;;;;;2.67;1.40;;;24.40;50.10;;;;;;2250987;56;20981;-74
2023/06/19 04:10:29;;;;;;;2.58;1.50;;;24.40;50.20;;;;;;2478181;55;20956;-74
2023/06/19 04:12:56;;;;;;;2.90;1.52;;;24.40;50.20;;;;;;2251186;56;20977;-72
2023/06/19 04:15:24;;;;;;;3.05;1.42;;;24.40;50.30;;;;;;2248078;56;21100;-74
2023/06/19 04:17:51;;;;;;;3.12;1.67;;;24.40;50.30;;;;;;2469329;55;21904;-74
2023/06/19 04:20:17;;;;;;;3.03;1.30;;;24.40;50.30;;;;;;2462876;55;20928;-74
2023/06/19 04:22:44;;;;;;;2.70;1.50;;;24.40;50.30;;;;;;2475142;55;21880;-73
2023/06/19 04:25:11;;;;;;;2.60;1.42;;;24.40;50.40;;;;;;2252053;56;20993;-73
2023/06/19 04:27:37;;;;;;;2.42;1.45;;;24.40;50.50;;;;;;2245788;56;20968;-73
2023/06/19 04:30:04;;;;;;;2.80;1.45;;;24.40;50.60;;;;;;2467574;55;21428;-73
2023/06/19 04:32:31;;;;;;;2.87;1.67;;;24.40;50.60;;;;;;2478542;55;21027;-74
2023/06/19 04:34:57;;;;;;;3.22;1.50;;;24.40;50.70;;;;;;2477381;55;20981;-72
2023/06/19 04:37:24;;;;;;;2.67;1.45;;;24.40;50.70;;;;;;2252403;56;20961;-74
2023/06/19 04:39:50;;;;;;;2.40;1.40;;;24.40;50.70;;;;;;2477729;55;21037;-74
2023/06/19 04:42:21;;;;;;;2.45;1.42;;;24.40;50.70;;;;;;2478163;55;20937;-73
2023/06/19 04:44:47;;;;;;;3.17;1.95;;;24.40;50.80;;;;;;2251692;56;20957;-73
2023/06/19 04:47:17;;;;;;;3.95;1.75;;;24.40;50.80;;;;;;2477964;55;20968;-74
2023/06/19 04:49:47;;;;;;;2.85;1.55;;;24.40;50.90;;;;;;2252348;56;21858;-73
2023/06/19 04:52:14;;;;;;;2.53;1.40;;;24.40;50.90;;;;;;2468697;55;21506;-73
2023/06/19 04:54:41;;;;;;;2.55;1.60;;;24.40;50.90;;;;;;2473528;55;21723;-73
2023/06/19 04:57:07;;;;;;;2.67;1.40;;;24.40;51.00;;;;;;2477016;55;20972;-74
2023/06/19 04:59:36;;;;;;;2.37;1.35;;;24.40;50.90;;;;;;2475458;55;20965;-73
2023/06/19 05:02:03;;;;;;;2.80;1.42;;;24.40;50.90;;;;;;2477668;55;20985;-73
2023/06/19 05:04:32;;;;;;;2.80;1.20;;;24.40;51.00;;;;;;2478395;55;20960;-73
2023/06/19 05:06:59;;;;;;;2.90;1.27;;;24.40;51.00;;;;;;2477718;55;21386;-71
2023/06/19 05:09:26;;;;;;;2.42;1.37;;;24.40;51.00;;;;;;2251437;56;21025;-73
2023/06/19 05:11:52;;;;;;;3.08;1.55;;;24.40;51.00;;;;;;2477160;55;21352;-73
2023/06/19 05:14:19;;;;;;;2.72;1.20;;;24.40;51.20;;;;;;2252971;56;22439;-73
2023/06/19 05:16:46;;;;;;;2.37;1.23;;;24.50;51.30;;;;;;2478122;55;20980;-73
2023/06/19 05:19:13;;;;;;;3.05;1.77;;;24.50;51.40;;;;;;2470369;55;21113;-74
2023/06/19 05:21:39;;;;;;;3.05;1.65;;;24.50;51.50;;;;;;2244224;56;20984;-74
2023/06/19 05:24:06;;;;;;;3.22;1.52;;;24.50;51.50;;;;;;2464522;55;21046;-72
2023/06/19 05:26:32;;;;;;;3.10;1.77;;;24.50;51.50;;;;;;2224141;56;20957;-72
2023/06/19 05:28:59;;;;;;;3.22;1.60;;;24.50;51.50;;;;;;2469750;55;21058;-74
2023/06/19 05:31:26;;;;;;;2.60;1.62;;;24.60;51.60;;;;;;2472136;55;20980;-72
2023/06/19 05:33:58;;;;;;;3.10;1.50;;;24.60;51.60;;;;;;2250043;56;21016;-74
2023/06/19 05:36:25;;;;;;;3.05;1.55;;;24.60;51.70;;;;;;2251424;56;21044;-73
2023/06/19 05:38:54;;;;;;;2.72;1.70;;;24.60;51.50;;;;;;2477096;55;20949;-73
2023/06/19 05:41:24;;;;;;;3.50;1.60;;;24.60;51.60;;;;;;2251476;56;20949;-74
2023/06/19 05:43:53;;;;;;;3.47;1.90;;;24.60;51.60;;;;;;2477330;55;20933;-74
2023/06/19 05:46:19;;;;;;;3.03;1.73;;;24.60;51.50;;;;;;2478267;55;20980;-73
2023/06/19 05:48:46;;;;;;;2.83;1.83;;;24.70;51.60;;;;;;2477946;55;21056;-73
2023/06/19 05:51:13;;;;;;;2.80;1.77;;;24.70;51.60;;;;;;2471279;55;20983;-72
2023/06/19 05:53:43;;;;;;;3.10;2.00;;;24.70;51.70;;;;;;2468740;55;21830;-73
2023/06/19 05:56:10;;;;;;;3.58;2.05;;;24.80;51.80;;;;;;2477272;55;21024;-73
2023/06/19 05:58:38;;;;;;;3.10;1.90;;;24.80;51.80;;;;;;2251374;56;20942;-73
2023/06/19 06:01:05;;;;;;;3.35;2.17;;;24.80;51.90;;;;;;2477452;55;20988;-73
2023/06/19 06:03:35;;;;;;;3.20;1.87;;;24.80;52.00;;;;;;2477643;55;21043;-73
2023/06/19 06:06:02;;;;;;;3.17;1.98;;;24.80;52.00;;;;;;2464677;55;20983;-73
2023/06/19 06:08:30;;;;;;;3.25;1.85;;;24.90;52.10;;;;;;2475946;55;21012;-73
2023/06/19 06:10:56;;;;;;;2.67;1.52;;;24.90;52.10;;;;;;2477348;55;20940;-74
2023/06/19 06:13:22;;;;;;;3.00;1.77;;;25.00;52.20;;;;;;2477706;55;21004;-73
2023/06/19 06:15:50;;;;;;;3.60;2.17;;;25.00;52.20;;;;;;2477660;55;20976;-71
2023/06/19 06:18:17;;;;;;;4.20;1.90;;;25.00;52.10;;;;;;2251948;56;21019;-74
2023/06/19 06:20:50;;;;;;;3.12;1.90;;;25.10;52.20;;;;;;2251311;56;20993;-73
2023/06/19 06:23:20;;;;;;;3.85;2.00;;;25.20;52.20;;;;;;2251253;56;21049;-74
2023/06/19 06:25:50;;;;;;;2.87;1.60;;;25.20;52.20;;;;;;2251340;56;21587;-73
2023/06/19 06:28:17;;;;;;;2.80;1.70;;;25.30;52.20;;;;;;2462321;55;21422;-73
2023/06/19 06:30:43;;;;;;;3.10;1.62;;;25.30;52.20;;;;;;2477846;55;21060;-73
2023/06/19 06:33:10;;;;;;;2.97;1.98;;;25.40;52.20;;;;;;2477161;55;20960;-72
2023/06/19 06:35:37;;;;;;;2.95;1.90;;;25.40;52.30;;;;;;2251265;56;21736;-73
2023/06/19 06:38:07;;;;;;;2.80;1.60;;;25.50;52.40;;;;;;2252759;56;21032;-74
2023/06/19 06:40:33;;;;;;;3.15;1.80;;;25.60;52.30;;;;;;2476488;55;21000;-73
2023/06/19 06:43:00;;;;;;;3.37;1.65;;;25.60;52.20;;;;;;2463774;55;20937;-72
2023/06/19 06:45:26;;;;;;;3.12;1.95;;;25.70;52.30;;;;;;2470455;55;21338;-74
2023/06/19 06:47:53;;;;;;;3.37;1.70;;;25.70;52.30;;;;;;2467231;55;21010;-75
2023/06/19 06:50:21;;;;;;;3.10;1.80;;;25.80;52.20;;;;;;2465988;55;21040;-73
2023/06/19 06:52:48;;;;;;;3.25;1.87;;;25.90;52.20;;;;;;2477792;55;20980;-73
2023/06/19 06:55:18;;;;;;;3.22;1.92;;;25.90;52.20;;;;;;2462104;55;21056;-75
2023/06/19 06:57:46;;;;;;;3.03;1.60;;;26.00;52.20;;;;;;2476156;55;21072;-74
2023/06/19 07:00:13;;;;;;;3.40;1.75;;;26.10;52.30;;;;;;2242440;56;20985;-74
2023/06/19 07:02:40;;;;;;;3.22;2.05;;;26.20;52.30;;;;;;2476672;55;21064;-73
2023/06/19 07:05:12;;;;;;;3.20;1.70;;;26.30;52.30;;;;;;2478157;55;21314;-73
2023/06/19 07:07:42;;;;;;;3.83;1.90;;;26.30;52.20;;;;;;2477231;55;20973;-73
2023/06/19 07:10:09;;;;;;;2.47;1.60;;;26.40;52.10;;;;;;2477681;55;21004;-72
2023/06/19 07:12:47;;;;;;;3.97;1.90;;;26.50;52.10;;;;;;2254535;56;20989;-73
2023/06/19 07:15:15;;;;;;;4.10;2.40;;;26.60;52.30;;;;;;2478372;55;21550;-73
2023/06/19 07:17:44;;;;;;;3.05;1.85;;;26.70;51.90;;;;;;2478315;55;21358;-74
2023/06/19 07:20:14;;;;;;;4.05;2.15;;;26.70;51.70;;;;;;2252569;56;20929;-73
2023/06/19 07:22:43;;;;;;;3.30;1.90;;;26.80;51.60;;;;;;2479539;55;20968;-74
2023/06/19 07:25:10;;;;;;;3.20;1.98;;;26.80;51.50;;;;;;2479289;55;21048;-74
2023/06/19 07:27:44;;;;;;;2.95;1.73;;;26.90;51.50;;;;;;2479430;55;21016;-73
2023/06/19 07:30:11;;;;;;;2.62;1.58;;;27.00;51.20;;;;;;2477454;55;21083;-74
2023/06/19 07:32:38;;;;;;;2.90;1.62;;;27.00;51.10;;;;;;2439401;56;20978;-74
2023/06/19 07:35:07;;;;;;;3.10;1.87;;;27.10;51.00;;;;;;2254185;56;21005;-73
2023/06/19 07:37:34;;;;;;;2.65;1.60;;;27.20;50.90;;;;;;2478971;55;20952;-73
2023/06/19 07:40:01;;;;;;;3.47;1.83;;;27.20;50.70;;;;;;2479322;55;20947;-73
2023/06/19 07:42:28;;;;;;;2.95;1.98;;;27.30;50.80;;;;;;2464447;55;21404;-73
2023/06/19 07:44:57;;;;;;;3.22;1.98;;;27.30;50.60;;;;;;2450713;55;21042;-71
2023/06/19 07:47:26;;;;;;;3.00;1.90;;;27.40;50.60;;;;;;2238320;56;20952;-73
2023/06/19 07:49:52;;;;;;;2.78;1.58;;;27.40;50.40;;;;;;2479128;55;20936;-74
2023/06/19 07:52:19;;;;;;;3.25;2.10;;;27.50;50.50;;;;;;2472850;55;20973;-73
2023/06/19 07:54:56;;;;;;;4.43;2.03;;;27.60;50.50;;;;;;2478701;55;21540;-73
2023/06/19 07:57:24;;;;;;;3.15;1.80;;;27.60;51.10;;;;;;2460748;55;21074;-73
2023/06/19 07:59:51;;;;;;;3.30;2.10;;;27.70;50.30;;;;;;2471999;55;21047;-73
2023/06/19 08:02:18;;;;;;;3.70;2.08;;;27.70;50.20;;;;;;2466330;55;20948;-74
2023/06/19 08:04:45;;;;;;;3.05;1.73;;;27.80;50.20;;;;;;2252091;56;21037;-72
2023/06/19 08:07:12;;;;;;;3.95;1.80;;;27.80;50.10;;;;;;2477872;55;21024;-74
2023/06/19 08:09:38;;;;;;;3.35;1.80;;;27.90;50.00;;;;;;2478375;55;20949;-73
2023/06/19 08:12:05;;;;;;;4.55;2.10;;;28.00;50.10;;;;;;2252020;56;20957;-73
2023/06/19 08:14:31;;;;;;;3.40;2.20;;;28.00;50.00;;;;;;2477920;55;21005;-73
2023/06/19 08:16:59;;;;;;;2.75;1.60;;;28.00;50.00;;;;;;2477118;55;21513;-72
2023/06/19 08:19:26;;;;;;;3.25;1.98;;;28.10;49.90;;;;;;2478520;55;21442;-74
2023/06/19 08:21:53;;;;;;;3.50;1.75;;;28.10;49.80;;;;;;2477992;55;21036;-74
2023/06/19 08:24:22;;;;;;;2.87;1.70;;;28.20;49.80;;;;;;2478732;55;21013;-74
2023/06/19 08:26:50;;;;;;;2.53;1.42;;;28.20;49.60;;;;;;2478375;55;20952;-74
2023/06/19 08:29:18;;;;;;;3.22;1.95;;;28.30;49.50;;;;;;2478196;55;21551;-73
2023/06/19 08:31:44;;;;;;;5.35;2.03;;;28.30;49.40;;;;;;2471501;55;21031;-73
2023/06/19 08:34:11;;;;;;;4.22;1.87;;;28.40;49.30;;;;;;2444680;56;21766;-73
2023/06/19 08:36:37;;;;;;;3.40;1.80;;;28.40;49.20;;;;;;2464630;55;21028;-75
2023/06/19 08:39:04;;;;;;;3.00;1.85;;;28.50;49.10;;;;;;2469668;55;21282;-73
2023/06/19 08:41:30;;;;;;;3.12;1.75;;;28.50;49.00;;;;;;2471653;55;20977;-75
2023/06/19 08:43:57;;;;;;;3.47;1.60;;;28.60;49.60;;;;;;2478392;55;20961;-74
2023/06/19 08:46:24;;;;;;;3.53;1.75;;;28.60;48.80;;;;;;2463032;55;21019;-72
2023/06/19 08:48:51;;;;;;;2.92;1.70;;;28.60;48.80;;;;;;2478589;55;20984;-73
2023/06/19 08:51:17;;;;;;;2.83;1.73;;;28.70;48.60;;;;;;2478229;55;21529;-73
2023/06/19 08:53:56;;;;;;;2.30;1.40;;;28.70;48.50;;;;;;2478541;55;21048;-73
2023/06/19 08:56:22;;;;;;;2.33;1.40;;;28.80;48.60;;;;;;2252433;56;20952;-75
2023/06/19 08:58:51;;;;;;;2.75;1.30;;;28.80;48.30;;;;;;2249691;56;20962;-74
2023/06/19 09:01:18;;;;;;;5.15;1.80;;;28.90;48.20;;;;;;2469523;55;20997;-74
2023/06/19 09:03:46;;;;;;;3.12;1.70;;;29.00;48.30;;;;;;2478264;55;20984;-74
2023/06/19 09:06:16;;;;;;;2.83;1.60;;;29.00;48.00;;;;;;2478153;55;21049;-74
2023/06/19 09:08:44;;;;;;;2.53;1.48;;;29.00;47.90;;;;;;2477903;55;21075;-75
2023/06/19 09:11:11;;;;;;;2.42;1.30;;;29.10;47.90;;;;;;2476950;55;21044;-75
2023/06/19 09:13:40;;;;;;;2.40;1.40;;;29.10;47.90;;;;;;2477748;55;21646;-74
2023/06/19 09:16:07;;;;;;;2.62;1.27;;;29.20;47.90;;;;;;2251255;56;21019;-74
2023/06/19 09:18:47;;;;;;;2.45;1.50;;;29.20;47.70;;;;;;2469290;55;20963;-75
2023/06/19 09:21:24;;;;;;;3.05;1.70;;;29.30;47.80;;;;;;2222988;56;21070;-73
2023/06/19 09:23:54;;;;;;;2.72;1.50;;;29.40;47.80;;;;;;2477977;55;21020;-75
2023/06/19 09:26:20;;;;;;;2.65;1.48;;;29.40;47.70;;;;;;2475491;55;20961;-75
2023/06/19 09:28:46;;;;;;;2.90;1.40;;;29.40;47.50;;;;;;2478090;55;20989;-74
2023/06/19 09:31:17;;;;;;;2.45;1.40;;;29.50;47.40;;;;;;2472308;55;20980;-74
2023/06/19 09:33:44;;;;;;;2.53;1.48;;;29.60;47.30;;;;;;2468258;55;21026;-74
2023/06/19 09:36:12;;;;;;;3.00;1.90;;;29.60;47.10;;;;;;2242319;56;21039;-74
2023/06/19 09:38:41;;;;;;;3.20;2.00;;;29.60;46.90;;;;;;2477906;55;21050;-75
2023/06/19 09:41:10;;;;;;;2.95;1.70;;;29.70;46.90;;;;;;2243877;56;20979;-74
2023/06/19 09:43:43;;;;;;;3.10;1.67;;;29.70;46.80;;;;;;2475792;55;21022;-75
2023/06/19 09:46:10;;;;;;;2.53;1.50;;;29.80;46.90;;;;;;2478183;55;20972;-74
2023/06/19 09:48:42;;;;;;;2.83;1.70;;;29.80;46.80;;;;;;2251545;56;21456;-74
2023/06/19 09:51:23;;;;;;;2.85;1.70;;;29.80;46.90;;;;;;2478047;55;20985;-74
2023/06/19 09:53:50;;;;;;;3.35;1.77;;;29.90;47.00;;;;;;2251836;56;21008;-74
2023/06/19 09:56:21;;;;;;;2.87;1.77;;;29.90;46.90;;;;;;2251349;56;21037;-74
2023/06/19 09:58:49;;;;;;;2.97;1.60;;;29.90;46.50;;;;;;2478335;55;22969;-74
2023/06/19 10:01:18;;;;;;;2.90;1.62;;;29.90;46.40;;;;;;2251156;56;20987;-74
2023/06/19 10:03:46;;;;;;;2.97;1.75;;;30.00;46.10;;;;;;2244393;56;20972;-75
2023/06/19 10:06:16;;;;;;;2.72;1.50;;;30.00;46.10;;;;;;2468617;55;20979;-74
2023/06/19 10:08:45;;;;;;;2.78;1.65;;;30.10;46.00;;;;;;2472121;55;20953;-74
2023/06/19 10:11:11;;;;;;;3.10;1.70;;;30.10;45.80;;;;;;2477899;55;20980;-74
2023/06/19 10:13:40;;;;;;;2.70;1.73;;;30.20;45.70;;;;;;2251230;56;20937;-75
2023/06/19 10:16:22;;;;;;;2.60;1.70;;;30.30;45.40;;;;;;2477454;55;21016;-75
2023/06/19 10:18:51;;;;;;;3.15;1.62;;;30.30;44.80;;;;;;2477643;55;20929;-74
2023/06/19 10:21:19;;;;;;;2.50;1.50;;;30.30;44.90;;;;;;2477517;55;21037;-74
2023/06/19 10:23:55;;;;;;;3.33;1.67;;;30.30;45.00;;;;;;2478142;55;21020;-74
2023/06/19 10:26:32;;;;;;;2.83;1.73;;;30.40;44.30;;;;;;2251852;56;21039;-74
2023/06/19 10:28:59;;;;;;;5.28;1.60;;;30.50;44.50;;;;;;2251299;56;20993;-73
2023/06/19 10:31:25;;;;;;;2.62;1.62;;;30.50;45.20;;;;;;2477824;55;20937;-75
2023/06/19 10:33:52;;;;;;;3.05;1.95;;;30.60;44.40;;;;;;2252066;56;21016;-74
2023/06/19 10:36:23;;;;;;;2.80;1.62;;;30.70;44.20;;;;;;2240833;56;21058;-73
2023/06/19 10:38:49;;;;;;;2.97;1.92;;;30.70;43.90;;;;;;2478225;55;20975;-75
2023/06/19 10:41:16;;;;;;;3.70;2.00;;;30.80;43.90;;;;;;2477884;55;21701;-75
2023/06/19 10:43:56;;;;;;;3.00;1.62;;;30.80;43.50;;;;;;2477431;55;20949;-75
2023/06/19 10:46:23;;;;;;;2.92;1.40;;;30.80;43.30;;;;;;2477568;55;21017;-75
2023/06/19 10:48:56;;;;;;;2.80;1.60;;;30.80;43.40;;;;;;2251804;56;21101;-75
2023/06/19 10:51:23;;;;;;;2.92;1.73;;;30.90;43.20;;;;;;2251321;56;21024;-76
2023/06/19 10:53:49;;;;;;;3.55;1.87;;;30.90;42.90;;;;;;2251506;56;21000;-74
2023/06/19 10:56:19;;;;;;;2.90;1.80;;;31.00;42.90;;;;;;2472857;55;21039;-75
2023/06/19 10:58:46;;;;;;;3.00;1.73;;;31.00;42.70;;;;;;2243343;56;21022;-76
2023/06/19 11:01:12;;;;;;;2.83;1.90;;;31.00;42.50;;;;;;2462673;55;21006;-74
2023/06/19 11:03:39;;;;;;;3.45;1.67;;;31.10;42.50;;;;;;2251178;56;22020;-75
2023/06/19 11:06:06;;;;;;;2.78;1.70;;;31.10;42.10;;;;;;2251782;56;20925;-74
2023/06/19 11:08:34;;;;;;;3.37;2.05;;;31.10;41.90;;;;;;2478383;55;20952;-75
2023/06/19 11:11:01;;;;;;;4.18;1.73;;;31.20;41.60;;;;;;2478667;55;21481;-76
2023/06/19 11:13:27;;;;;;;2.80;1.77;;;31.20;41.50;;;;;;2250970;56;21807;-76
2023/06/19 11:15:53;;;;;;;3.22;1.92;;;31.30;41.60;;;;;;2249604;56;20983;-76
2023/06/19 11:18:20;;;;;;;3.40;2.12;;;31.30;41.60;;;;;;2223157;57;21118;-76
2023/06/19 11:20:51;;;;;;;3.15;2.00;;;31.40;41.80;;;;;;2474349;55;20964;-76
2023/06/19 11:23:40;;;;;;;3.45;2.10;;;31.40;41.60;;;;;;2478286;55;21452;-76
2023/06/19 11:26:09;;;;;;;3.80;2.10;;;31.50;41.40;;;;;;2254579;56;21054;-74
2023/06/19 11:28:35;;;;;;;2.70;1.70;;;31.60;41.30;;;;;;2438491;55;21448;-74
2023/06/19 11:31:05;;;;;;;3.30;1.83;;;31.60;41.00;;;;;;2251781;56;21004;-75
2023/06/19 11:33:33;;;;;;;2.60;1.42;;;31.60;40.80;;;;;;2477986;55;21822;-76
2023/06/19 11:36:00;;;;;;;3.35;1.87;;;31.70;40.90;;;;;;2221720;56;20965;-75
2023/06/19 11:38:27;;;;;;;2.87;1.80;;;31.70;40.80;;;;;;2477251;55;21538;-75
2023/06/19 11:40:56;;;;;;;2.80;1.70;;;31.80;40.70;;;;;;2251589;56;20953;-74
2023/06/19 11:43:30;;;;;;;3.28;2.03;;;31.90;40.40;;;;;;2477663;55;20968;-75
2023/06/19 11:46:06;;;;;;;2.70;1.80;;;32.00;40.20;;;;;;2251481;56;20941;-75
2023/06/19 11:48:32;;;;;;;3.15;2.03;;;32.00;40.30;;;;;;2478061;55;21891;-75
2023/06/19 11:50:59;;;;;;;2.90;1.98;;;32.00;40.20;;;;;;2468018;55;21353;-75
2023/06/19 11:53:25;;;;;;;3.50;2.20;;;32.10;40.10;;;;;;2466310;55;21055;-75
2023/06/19 11:55:53;;;;;;;3.03;2.10;;;32.20;40.10;;;;;;2468831;55;21608;-74
2023/06/19 11:58:20;;;;;;;3.15;2.10;;;32.30;40.00;;;;;;2251165;56;20963;-75
2023/06/19 12:00:47;;;;;;;3.40;2.25;;;32.30;39.90;;;;;;2251477;56;20940;-75
2023/06/19 12:03:13;;;;;;;3.30;2.30;;;32.30;39.50;;;;;;2251652;56;20960;-75
2023/06/19 12:05:40;;;;;;;3.25;2.10;;;32.40;39.30;;;;;;2251436;56;20969;-74
2023/06/19 12:08:06;;;;;;;3.92;2.10;;;32.40;39.20;;;;;;2478047;55;21056;-75
2023/06/19 12:10:33;;;;;;;3.87;2.17;;;32.50;39.30;;;;;;2251090;56;21433;-74
2023/06/19 12:13:00;;;;;;;4.47;1.85;;;32.50;39.30;;;;;;2251457;56;20972;-75
2023/06/19 12:15:29;;;;;;;3.37;2.28;;;32.50;39.10;;;;;;2463463;55;20951;-75
2023/06/19 12:17:57;;;;;;;3.37;2.33;;;32.60;39.00;;;;;;2477160;55;20936;-74
2023/06/19 12:20:25;;;;;;;3.95;2.20;;;32.60;39.00;;;;;;2477737;55;20976;-74
2023/06/19 12:22:51;;;;;;;3.25;1.92;;;32.70;39.10;;;;;;2477875;55;20972;-75
2023/06/19 12:25:17;;;;;;;3.45;2.20;;;32.70;39.00;;;;;;2477361;55;21736;-74
2023/06/19 12:27:44;;;;;;;3.08;1.98;;;32.80;38.90;;;;;;2233034;56;21705;-75
2023/06/19 12:30:11;;;;;;;3.33;1.83;;;32.80;39.00;;;;;;2238262;56;21539;-75
2023/06/19 12:32:38;;;;;;;3.00;1.85;;;32.80;39.00;;;;;;2444296;55;21035;-76
2023/06/19 12:35:06;;;;;;;3.17;2.10;;;32.90;38.80;;;;;;2244560;56;20936;-75
2023/06/19 12:37:33;;;;;;;2.97;1.90;;;33.00;38.70;;;;;;2477696;55;21025;-75
2023/06/19 12:39:59;;;;;;;2.83;1.83;;;33.10;38.70;;;;;;2478013;55;20929;-75
2023/06/19 12:42:26;;;;;;;3.60;2.25;;;33.10;38.50;;;;;;2477646;55;21479;-74
2023/06/19 12:44:52;;;;;;;3.80;2.20;;;33.10;38.10;;;;;;2252015;56;21020;-75
2023/06/19 12:47:18;;;;;;;3.10;2.30;;;33.30;37.90;;;;;;2478297;55;20945;-75
2023/06/19 12:49:45;;;;;;;3.15;2.15;;;33.30;37.80;;;;;;2251414;56;21036;-75
2023/06/19 12:52:11;;;;;;;3.70;2.03;;;33.30;37.60;;;;;;2252092;56;21409;-75
2023/06/19 12:54:42;;;;;;;4.05;2.10;;;33.30;37.60;;;;;;2478957;55;20984;-75